createdAt,value
2022-09-26T00:01:38.342Z,3.40
2022-09-26T00:04:10.073Z,2.92
2022-09-26T00:06:36.789Z,3.10
2022-09-26T00:09:03.604Z,3.77
2022-09-26T00:11:32.614Z,3.10
2022-09-26T00:14:03.209Z,3.20
2022-09-26T00:16:30.121Z,3.05
2022-09-26T00:18:58.869Z,2.97
2022-09-26T00:21:27.139Z,2.90
2022-09-26T00:23:55.652Z,2.63
2022-09-26T00:26:24.108Z,3.33
2022-09-26T00:28:51.260Z,2.70
2022-09-26T00:31:21.312Z,2.90
2022-09-26T00:33:48.384Z,2.57
2022-09-26T00:36:15.439Z,2.05
2022-09-26T00:38:42.382Z,2.42
2022-09-26T00:41:09.525Z,2.55
2022-09-26T00:43:42.686Z,2.58
2022-09-26T00:46:28.154Z,2.57
2022-09-26T00:48:57.909Z,2.28
2022-09-26T00:51:24.784Z,2.20
2022-09-26T00:53:53.615Z,2.45
2022-09-26T00:56:25.849Z,2.53
2022-09-26T00:58:58.109Z,2.60
2022-09-26T01:01:25.023Z,2.28
2022-09-26T01:03:52.219Z,2.30
2022-09-26T01:06:20.009Z,3.00
2022-09-26T01:08:54.107Z,2.50
2022-09-26T01:11:21.381Z,2.53
2022-09-26T01:13:49.660Z,2.63
2022-09-26T01:16:17.270Z,2.20
2022-09-26T01:18:45.201Z,2.47
2022-09-26T01:21:33.642Z,1.92
2022-09-26T01:24:06.569Z,2.00
2022-09-26T01:27:12.125Z,2.20
2022-09-26T01:29:57.721Z,1.58
2022-09-26T01:32:50.552Z,2.25
2022-09-26T01:35:39.071Z,1.88
2022-09-26T01:38:30.544Z,2.20
2022-09-26T01:41:35.080Z,2.10
2022-09-26T01:44:35.993Z,2.05
2022-09-26T01:47:14.145Z,2.15
2022-09-26T01:49:50.647Z,2.15
2022-09-26T01:52:56.624Z,2.23
2022-09-26T01:55:50.063Z,2.25
2022-09-26T01:58:32.372Z,2.33
2022-09-26T02:01:03.017Z,3.15
2022-09-26T02:03:35.676Z,2.30
2022-09-26T02:06:07.783Z,2.60
2022-09-26T02:08:51.207Z,2.90
2022-09-26T02:11:22.128Z,2.83
2022-09-26T02:14:03.393Z,2.70
2022-09-26T02:16:30.138Z,2.92
2022-09-26T02:19:23.102Z,2.80
2022-09-26T02:21:50.519Z,2.90
2022-09-26T02:24:18.307Z,2.67
2022-09-26T02:26:45.242Z,2.90
2022-09-26T02:29:14.035Z,2.85
2022-09-26T02:32:03.014Z,3.00
2022-09-26T02:34:30.064Z,2.63
2022-09-26T02:36:57.750Z,3.30
2022-09-26T02:39:27.888Z,3.20
2022-09-26T02:42:42.119Z,3.17
2022-09-26T02:45:09.088Z,3.20
2022-09-26T02:48:02.409Z,3.13
2022-09-26T02:50:57.191Z,3.25
2022-09-26T02:53:37.038Z,3.35
2022-09-26T02:56:36.843Z,3.20
2022-09-26T02:59:15.756Z,3.77
2022-09-26T03:02:00.119Z,4.32
2022-09-26T03:04:54.830Z,4.55
2022-09-26T03:07:29.699Z,5.63
2022-09-26T03:10:00.644Z,4.53
2022-09-26T03:12:29.810Z,5.13
2022-09-26T03:14:59.389Z,4.65
2022-09-26T03:17:28.064Z,4.32
2022-09-26T03:20:05.541Z,4.90
2022-09-26T03:22:34.807Z,4.57
2022-09-26T03:25:02.750Z,4.67
2022-09-26T03:27:32.331Z,4.97
2022-09-26T03:29:59.430Z,4.50
2022-09-26T03:32:28.177Z,4.30
2022-09-26T03:34:56.107Z,4.75
2022-09-26T03:37:24.262Z,5.37
2022-09-26T03:39:51.049Z,4.70
2022-09-26T03:42:38.176Z,4.88
2022-09-26T03:45:13.356Z,4.68
2022-09-26T03:48:09.095Z,4.63
2022-09-26T03:50:35.921Z,4.90
2022-09-26T03:53:02.625Z,4.18
2022-09-26T03:55:29.694Z,4.63
2022-09-26T03:57:56.512Z,3.83
2022-09-26T04:00:30.285Z,3.72
2022-09-26T04:03:02.777Z,4.03
2022-09-26T04:05:36.469Z,4.13
2022-09-26T04:08:03.958Z,3.60
2022-09-26T04:10:31.320Z,3.17
2022-09-26T04:12:58.066Z,3.20
2022-09-26T04:15:25.407Z,3.70
2022-09-26T04:18:03.555Z,2.85
2022-09-26T04:20:31.692Z,2.92
2022-09-26T04:22:59.377Z,3.17
2022-09-26T04:25:26.101Z,3.35
2022-09-26T04:27:52.878Z,3.00
2022-09-26T04:30:19.585Z,3.30
2022-09-26T04:32:52.981Z,3.25
2022-09-26T04:35:31.841Z,3.28
2022-09-26T04:37:58.591Z,3.17
2022-09-26T04:40:25.469Z,3.07
2022-09-26T04:43:04.822Z,2.92
2022-09-26T04:45:31.733Z,2.78
2022-09-26T04:47:58.717Z,3.00
2022-09-26T04:50:26.155Z,2.50
2022-09-26T04:53:06.782Z,2.40
2022-09-26T04:55:37.454Z,2.30
2022-09-26T04:58:04.212Z,2.20
2022-09-26T05:00:31.516Z,2.85
2022-09-26T05:03:02.794Z,2.40
2022-09-26T05:05:31.208Z,2.40
2022-09-26T05:07:57.945Z,2.20
2022-09-26T05:10:24.957Z,2.15
2022-09-26T05:12:59.838Z,2.28
2022-09-26T05:15:26.602Z,1.95
2022-09-26T05:17:59.406Z,2.13
2022-09-26T05:20:29.338Z,2.10
2022-09-26T05:22:59.625Z,2.38
2022-09-26T05:25:47.018Z,2.30
2022-09-26T05:28:14.971Z,2.10
2022-09-26T05:30:43.408Z,2.50
2022-09-26T05:33:12.727Z,2.03
2022-09-26T05:35:40.573Z,2.50
2022-09-26T05:38:07.255Z,2.00
2022-09-26T05:40:56.494Z,2.35
2022-09-26T05:43:29.795Z,2.40
2022-09-26T05:46:01.918Z,2.30
2022-09-26T05:48:35.565Z,1.90
2022-09-26T05:51:13.895Z,1.77
2022-09-26T05:53:45.382Z,1.95
2022-09-26T05:56:18.947Z,2.23
2022-09-26T05:59:11.032Z,2.08
2022-09-26T06:01:57.532Z,1.75
2022-09-26T06:04:43.099Z,2.55
2022-09-26T06:07:40.521Z,2.38
2022-09-26T06:10:11.886Z,2.27
2022-09-26T06:12:52.679Z,2.22
2022-09-26T06:15:19.866Z,2.15
2022-09-26T06:17:48.103Z,2.20
2022-09-26T06:20:15.018Z,2.25
2022-09-26T06:22:43.451Z,2.23
2022-09-26T06:25:11.593Z,2.15
2022-09-26T06:27:42.466Z,2.35
2022-09-26T06:30:13.213Z,2.42
2022-09-26T06:32:40.685Z,2.20
2022-09-26T06:35:19.254Z,2.37
2022-09-26T06:38:06.890Z,2.08
2022-09-26T06:40:33.759Z,2.58
2022-09-26T06:43:00.934Z,1.90
2022-09-26T06:46:02.749Z,2.10
2022-09-26T06:48:41.300Z,2.20
2022-09-26T06:51:26.067Z,2.20
2022-09-26T06:53:52.973Z,2.85
2022-09-26T06:56:24.867Z,2.40
2022-09-26T06:58:51.610Z,2.00
2022-09-26T07:01:22.807Z,2.10
2022-09-26T07:03:49.597Z,2.60
2022-09-26T07:06:48.748Z,2.40
2022-09-26T07:09:16.486Z,2.05
2022-09-26T07:14:39.944Z,2.00
2022-09-26T07:17:17.263Z,2.42
2022-09-26T07:20:09.153Z,2.38
2022-09-26T07:22:54.789Z,1.73
2022-09-26T07:25:21.664Z,2.00
2022-09-26T07:27:52.505Z,2.33
2022-09-26T07:30:23.481Z,2.30
2022-09-26T07:33:06.526Z,2.35
2022-09-26T07:35:37.619Z,1.88
2022-09-26T07:38:05.110Z,2.13
2022-09-26T07:40:32.151Z,2.07
2022-09-26T07:43:18.589Z,2.53
2022-09-26T07:46:09.141Z,2.22
2022-09-26T07:48:55.030Z,2.20
2022-09-26T07:51:40.530Z,2.40
2022-09-26T07:54:12.011Z,2.60
2022-09-26T07:57:04.931Z,2.20
2022-09-26T07:59:50.496Z,2.30
2022-09-26T08:02:37.578Z,2.30
2022-09-26T08:05:06.085Z,2.50
2022-09-26T08:07:35.424Z,2.53
2022-09-26T08:10:21.121Z,2.10
2022-09-26T08:13:06.687Z,2.55
2022-09-26T08:15:41.395Z,2.25
2022-09-26T08:18:11.847Z,2.45
2022-09-26T08:20:38.610Z,2.70
2022-09-26T08:23:05.602Z,3.15
2022-09-26T08:25:33.159Z,2.50
2022-09-26T08:28:07.351Z,3.10
2022-09-26T08:30:34.041Z,2.95
2022-09-26T08:33:02.828Z,2.90
2022-09-26T08:35:38.662Z,2.20
2022-09-26T08:38:19.771Z,2.20
2022-09-26T08:41:16.361Z,2.13
2022-09-26T08:44:36.832Z,2.60
2022-09-26T08:47:32.373Z,2.67
2022-09-26T08:50:32.718Z,2.72
2022-09-26T08:53:05.442Z,2.50
2022-09-26T08:55:41.667Z,2.47
2022-09-26T08:58:18.781Z,2.50
2022-09-26T09:00:51.554Z,2.83
2022-09-26T09:03:40.828Z,2.35
2022-09-26T09:06:11.931Z,2.65
2022-09-26T09:08:45.881Z,3.03
2022-09-26T09:12:08.421Z,2.80
2022-09-26T09:15:02.281Z,2.90
2022-09-26T09:18:21.138Z,2.80
2022-09-26T09:21:29.210Z,3.08
2022-09-26T09:24:13.460Z,3.17
2022-09-26T09:30:16.877Z,3.50
2022-09-26T09:33:08.475Z,2.92
2022-09-26T09:35:59.462Z,2.85
2022-09-26T09:38:48.903Z,3.25
2022-09-26T09:41:45.261Z,2.90
2022-09-26T09:44:30.570Z,2.60
2022-09-26T09:46:58.397Z,3.80
2022-09-26T09:49:26.165Z,2.90
2022-09-26T09:52:31.158Z,2.85
2022-09-26T09:55:14.956Z,3.97
2022-09-26T09:57:48.061Z,3.33
2022-09-26T10:00:16.626Z,2.53
2022-09-26T10:03:03.808Z,2.58
2022-09-26T10:05:47.851Z,3.92
2022-09-26T10:08:33.453Z,3.20
2022-09-26T10:11:36.245Z,2.93
2022-09-26T10:14:40.898Z,3.55
2022-09-26T10:17:20.214Z,3.05
2022-09-26T10:19:58.759Z,2.83
2022-09-26T10:22:29.461Z,2.20
2022-09-26T10:25:08.462Z,2.33
2022-09-26T10:27:46.674Z,2.78
2022-09-26T10:30:30.277Z,2.83
2022-09-26T10:33:04.934Z,2.92
2022-09-26T10:35:44.368Z,2.97
2022-09-26T10:38:24.674Z,2.63
2022-09-26T10:41:01.261Z,3.05
2022-09-26T10:43:33.769Z,2.58
2022-09-26T10:46:13.057Z,2.97
2022-09-26T10:49:02.247Z,3.20
2022-09-26T10:52:09.112Z,3.23
2022-09-26T10:54:41.792Z,3.67
2022-09-26T10:57:19.292Z,3.15
2022-09-26T10:59:47.382Z,3.25
2022-09-26T11:02:20.028Z,2.80
2022-09-26T11:05:06.082Z,3.23
2022-09-26T11:08:06.694Z,2.92
2022-09-26T11:10:53.010Z,2.60
2022-09-26T11:13:47.977Z,2.75
2022-09-26T11:16:19.934Z,2.78
2022-09-26T11:19:05.994Z,2.57
2022-09-26T11:21:39.378Z,2.92
2022-09-26T11:24:37.127Z,2.78
2022-09-26T11:27:38.547Z,2.97
2022-09-26T11:30:21.170Z,2.70
2022-09-26T11:32:57.920Z,2.90
2022-09-26T11:36:03.133Z,2.42
2022-09-26T11:38:38.238Z,2.30
2022-09-26T11:41:38.268Z,2.40
2022-09-26T11:44:39.439Z,2.33
2022-09-26T11:47:47.552Z,2.77
2022-09-26T11:50:48.294Z,2.00
2022-09-26T11:53:19.825Z,2.40
2022-09-26T11:56:21.896Z,2.28
2022-09-26T11:59:00.822Z,2.63
2022-09-26T12:01:38.058Z,2.50
2022-09-26T12:04:29.379Z,2.30
2022-09-26T12:07:05.309Z,2.28
2022-09-26T12:09:58.470Z,2.17
2022-09-26T12:12:49.605Z,2.70
2022-09-26T12:15:25.714Z,2.83
2022-09-26T12:18:22.271Z,2.67
2022-09-26T12:21:19.229Z,2.50
2022-09-26T12:23:50.430Z,3.33
2022-09-26T12:26:59.657Z,2.90
2022-09-26T12:29:27.340Z,3.00
2022-09-26T12:32:19.122Z,3.10
2022-09-26T12:35:02.114Z,2.92
2022-09-26T12:37:46.648Z,3.22
2022-09-26T12:40:38.564Z,3.80
2022-09-26T12:43:31.418Z,3.40
2022-09-26T12:46:35.740Z,3.03
2022-09-26T12:49:22.445Z,2.40
2022-09-26T12:51:55.642Z,2.70
2022-09-26T12:54:32.919Z,2.35
2022-09-26T12:57:05.468Z,2.60
2022-09-26T13:00:10.404Z,2.83
2022-09-26T13:02:47.216Z,3.20
2022-09-26T13:05:19.573Z,2.20
2022-09-26T13:08:21.012Z,2.17
2022-09-26T13:10:59.749Z,2.70
2022-09-26T13:13:30.059Z,2.53
2022-09-26T13:16:25.004Z,2.50
2022-09-26T13:19:24.043Z,2.60
2022-09-26T13:21:59.317Z,1.95
2022-09-26T13:24:34.862Z,2.10
2022-09-26T13:27:23.125Z,2.15
2022-09-26T13:30:05.275Z,1.88
2022-09-26T13:32:44.026Z,2.00
2022-09-26T13:35:22.732Z,1.88
2022-09-26T13:38:08.257Z,2.10
2022-09-26T13:40:53.234Z,1.90
2022-09-26T13:43:57.725Z,2.08
2022-09-26T13:46:46.133Z,2.00
2022-09-26T13:49:34.335Z,2.13
2022-09-26T13:52:13.951Z,1.70
2022-09-26T13:55:01.825Z,1.88
2022-09-26T13:57:46.670Z,1.70
2022-09-26T14:00:23.277Z,1.58
2022-09-26T14:03:16.118Z,1.73
2022-09-26T14:05:46.621Z,2.13
2022-09-26T14:08:44.290Z,1.70
2022-09-26T14:11:24.732Z,1.75
2022-09-26T14:14:19.336Z,2.30
2022-09-26T14:16:50.886Z,1.70
2022-09-26T14:19:39.240Z,1.70
2022-09-26T14:22:25.937Z,1.70
2022-09-26T14:24:54.007Z,1.67
2022-09-26T14:27:39.350Z,1.70
2022-09-26T14:30:26.815Z,1.90
2022-09-26T14:33:02.073Z,2.10
2022-09-26T14:35:35.052Z,1.83
2022-09-26T14:38:13.260Z,2.20
2022-09-26T14:40:55.722Z,2.10
2022-09-26T14:43:27.684Z,2.47
2022-09-26T14:46:05.970Z,2.40
2022-09-26T14:48:41.552Z,2.70
2022-09-26T14:51:11.221Z,2.20
2022-09-26T14:53:50.134Z,2.30
2022-09-26T14:56:25.429Z,2.40
2022-09-26T14:58:53.245Z,2.83
2022-09-26T15:01:32.242Z,3.55
2022-09-26T15:04:12.808Z,3.88
2022-09-26T15:06:43.640Z,3.05
2022-09-26T15:09:12.383Z,3.25
2022-09-26T15:11:44.265Z,4.50
2022-09-26T15:14:35.298Z,3.90
2022-09-26T15:17:02.484Z,3.60
2022-09-26T15:19:34.737Z,4.07
2022-09-26T15:22:12.086Z,4.00
2022-09-26T15:24:38.873Z,3.17
2022-09-26T15:27:27.091Z,4.13
2022-09-26T15:29:57.812Z,3.83
2022-09-26T15:32:30.106Z,3.55
2022-09-26T15:34:59.705Z,3.35
2022-09-26T15:37:33.494Z,2.97
2022-09-26T15:40:21.144Z,2.28
2022-09-26T15:43:02.326Z,1.85
2022-09-26T15:45:46.167Z,1.83
2022-09-26T15:48:25.763Z,2.00
2022-09-26T15:51:05.545Z,2.73
2022-09-26T15:53:44.809Z,2.35
2022-09-26T15:56:24.899Z,1.80
2022-09-26T15:58:51.665Z,1.90
2022-09-26T16:01:21.095Z,1.60
2022-09-26T16:04:05.550Z,2.40
2022-09-26T16:06:35.191Z,2.45
2022-09-26T16:09:10.989Z,2.13
2022-09-26T16:11:50.882Z,4.43
2022-09-26T16:14:30.070Z,3.75
2022-09-26T16:17:40.325Z,3.77
2022-09-26T16:20:09.801Z,3.30
2022-09-26T16:22:51.003Z,4.97
2022-09-26T16:25:20.606Z,3.75
2022-09-26T16:28:11.561Z,3.05
2022-09-26T16:31:04.717Z,4.20
2022-09-26T16:33:33.355Z,4.97
2022-09-26T16:36:19.810Z,3.40
2022-09-26T16:39:08.616Z,3.08
2022-09-26T16:44:40.921Z,4.00
2022-09-26T16:47:43.913Z,3.60
2022-09-26T16:50:28.875Z,4.43
2022-09-26T16:52:56.050Z,3.80
2022-09-26T16:55:24.253Z,3.33
2022-09-26T16:57:58.266Z,3.87
2022-09-26T17:00:51.967Z,3.40
2022-09-26T17:03:24.617Z,3.75
2022-09-26T17:05:52.785Z,3.30
2022-09-26T17:08:19.978Z,3.47
2022-09-26T17:10:46.851Z,3.60
2022-09-26T17:13:23.337Z,3.67
2022-09-26T17:15:55.456Z,4.07
2022-09-26T17:18:33.128Z,4.03
2022-09-26T17:21:00.941Z,3.78
2022-09-26T17:23:40.551Z,4.27
2022-09-26T17:26:21.737Z,4.07
2022-09-26T17:28:49.725Z,4.15
2022-09-26T17:31:19.928Z,4.03
2022-09-26T17:33:51.380Z,3.75
2022-09-26T17:36:24.174Z,3.70
2022-09-26T17:38:51.357Z,3.95
2022-09-26T17:41:18.093Z,3.33
2022-09-26T17:43:45.076Z,3.63
2022-09-26T17:46:15.576Z,3.80
2022-09-26T17:48:44.317Z,6.03
2022-09-26T17:51:14.496Z,3.50
2022-09-26T17:53:50.438Z,3.25
2022-09-26T17:56:21.108Z,5.00
2022-09-26T17:58:49.514Z,3.97
2022-09-26T18:01:22.710Z,3.37
2022-09-26T18:03:51.764Z,4.15
2022-09-26T18:06:31.258Z,3.35
2022-09-26T18:09:01.762Z,3.58
2022-09-26T18:11:29.236Z,4.38
2022-09-26T18:13:56.835Z,4.47
2022-09-26T18:16:24.642Z,5.18
2022-09-26T18:18:51.545Z,3.97
2022-09-26T18:21:18.890Z,4.30
2022-09-26T18:23:53.076Z,3.95
2022-09-26T18:26:35.848Z,6.23
2022-09-26T18:29:07.524Z,4.53
2022-09-26T18:31:38.193Z,4.15
2022-09-26T18:34:11.279Z,5.15
2022-09-26T18:36:38.392Z,4.40
2022-09-26T18:39:05.106Z,3.90
2022-09-26T18:41:32.817Z,4.50
2022-09-26T18:44:02.707Z,4.53
2022-09-26T18:46:30.022Z,4.05
2022-09-26T18:49:05.954Z,4.72
2022-09-26T18:51:33.278Z,5.17
2022-09-26T18:54:01.602Z,6.22
2022-09-26T18:56:46.819Z,4.85
2022-09-26T18:59:14.558Z,3.95
2022-09-26T19:01:43.348Z,4.43
2022-09-26T19:04:30.662Z,4.73
2022-09-26T19:07:04.546Z,4.20
2022-09-26T19:09:33.772Z,5.88
2022-09-26T19:12:02.014Z,5.10
2022-09-26T19:14:30.599Z,4.40
2022-09-26T19:16:57.828Z,4.30
2022-09-26T19:19:25.536Z,5.07
2022-09-26T19:21:59.248Z,3.95
2022-09-26T19:24:40.161Z,4.97
2022-09-26T19:27:19.605Z,3.50
2022-09-26T19:29:48.880Z,3.83
2022-09-26T19:32:32.610Z,3.05
2022-09-26T19:35:03.066Z,3.10
2022-09-26T19:37:29.868Z,3.35
2022-09-26T19:39:57.730Z,3.45
2022-09-26T19:42:26.050Z,2.58
2022-09-26T19:44:52.838Z,5.97
2022-09-26T19:47:22.659Z,3.00
2022-09-26T19:49:51.416Z,4.80
2022-09-26T19:52:20.343Z,3.15
2022-09-26T19:54:47.867Z,2.17
2022-09-26T19:57:20.185Z,2.35
2022-09-26T19:59:48.462Z,1.57
2022-09-26T20:02:20.961Z,3.17
2022-09-26T20:04:48.465Z,2.00
2022-09-26T20:07:17.531Z,2.05
2022-09-26T20:09:44.600Z,1.80
2022-09-26T20:12:11.673Z,2.00
2022-09-26T20:14:38.473Z,1.92
2022-09-26T20:17:25.957Z,1.20
2022-09-26T20:19:58.385Z,1.70
2022-09-26T20:22:26.081Z,2.05
2022-09-26T20:24:57.034Z,1.47
2022-09-26T20:27:26.461Z,1.80
2022-09-26T20:30:11.930Z,2.05
2022-09-26T20:32:40.642Z,1.50
2022-09-26T20:35:09.999Z,2.05
2022-09-26T20:37:39.783Z,2.13
2022-09-26T20:40:19.339Z,2.40
2022-09-26T20:42:49.936Z,2.03
2022-09-26T20:45:20.028Z,2.55
2022-09-26T20:47:46.907Z,1.98
2022-09-26T20:50:19.181Z,1.30
2022-09-26T20:52:45.935Z,1.45
2022-09-26T20:55:17.921Z,2.00
2022-09-26T20:57:45.783Z,1.40
2022-09-26T21:00:16.808Z,2.00
2022-09-26T21:02:45.518Z,1.00
2022-09-26T21:05:22.768Z,2.55
2022-09-26T21:07:50.820Z,2.60
2022-09-26T21:10:30.260Z,2.70
2022-09-26T21:12:58.350Z,1.77
2022-09-26T21:15:27.890Z,1.60
2022-09-26T21:17:55.357Z,1.63
2022-09-26T21:20:33.370Z,1.55
2022-09-26T21:23:34.121Z,1.80
2022-09-26T21:26:00.831Z,1.25
2022-09-26T21:28:28.448Z,1.47
2022-09-26T21:30:58.976Z,1.13
2022-09-26T21:33:25.975Z,1.73
2022-09-26T21:35:52.758Z,5.57
2022-09-26T21:38:20.768Z,2.70
2022-09-26T21:40:57.154Z,1.73
2022-09-26T21:43:27.258Z,1.95
2022-09-26T21:45:53.976Z,2.90
2022-09-26T21:48:20.787Z,2.20
2022-09-26T21:50:58.299Z,2.80
2022-09-26T21:53:40.856Z,5.57
2022-09-26T21:56:14.914Z,1.48
2022-09-26T21:58:43.008Z,1.60
2022-09-26T22:01:09.856Z,2.45
2022-09-26T22:03:37.186Z,2.97
2022-09-26T22:06:07.340Z,2.00
2022-09-26T22:08:34.687Z,1.80
2022-09-26T22:11:03.123Z,1.70
2022-09-26T22:13:30.350Z,3.30
2022-09-26T22:16:08.289Z,2.15
2022-09-26T22:18:35.769Z,2.30
2022-09-26T22:21:04.314Z,2.10
2022-09-26T22:23:34.827Z,1.52
2022-09-26T22:26:01.987Z,1.67
2022-09-26T22:28:28.980Z,2.60
2022-09-26T22:31:00.201Z,2.60
2022-09-26T22:33:27.375Z,2.15
2022-09-26T22:35:54.054Z,1.95
2022-09-26T22:38:20.873Z,1.67
2022-09-26T22:40:57.000Z,1.70
2022-09-26T22:43:24.174Z,1.30
2022-09-26T22:45:51.220Z,2.22
2022-09-26T22:48:18.160Z,1.35
2022-09-26T22:50:46.089Z,1.35
2022-09-26T22:53:12.858Z,1.60
2022-09-26T22:55:39.557Z,1.60
2022-09-26T22:58:06.253Z,1.25
2022-09-26T23:00:33.003Z,6.50
2022-09-26T23:02:59.689Z,2.15
2022-09-26T23:05:26.340Z,1.80
2022-09-26T23:07:54.564Z,1.47
2022-09-26T23:10:22.157Z,1.20
2022-09-26T23:12:50.518Z,1.40
2022-09-26T23:15:18.264Z,0.90
2022-09-26T23:17:46.154Z,1.45
2022-09-26T23:20:12.816Z,1.00
2022-09-26T23:22:39.745Z,1.38
2022-09-26T23:25:07.831Z,1.75
2022-09-26T23:27:35.179Z,5.93
2022-09-26T23:30:02.189Z,5.72
2022-09-26T23:32:28.902Z,2.80
2022-09-26T23:34:55.624Z,2.63
2022-09-26T23:37:22.708Z,1.08
2022-09-26T23:39:49.444Z,1.58
2022-09-26T23:42:16.121Z,1.30
2022-09-26T23:44:42.800Z,1.73
2022-09-26T23:47:09.497Z,3.28
2022-09-26T23:49:36.214Z,5.22
2022-09-26T23:52:02.886Z,6.32
2022-09-26T23:54:29.547Z,4.10
2022-09-26T23:56:56.207Z,2.53
2022-09-26T23:59:22.940Z,1.27
